Time;durP1;ratioP1;P1;durP2;ratioP2;P2;SDS_P1;SDS_P2;PMS_P1;PMS_P2;Temp;Humidity;BMP_temperature;BMP_pressure;BME280_temperature;BME280_humidity;BME280_pressure;Samples;Min_cycle;Max_cycle;Signal;HPM_P1;HPM_P2
2022/03/08 00:01:23;;;;;;;8.63;7.23;;;;;;;;;;5055711;28;20104;-58
2022/03/08 00:07:29;;;;;;;;;;;;;;;;;;;;;
2022/03/08 00:10:16;;;;;;;10.87;8.47;;;;;;;;;;5066631;28;20068;-58
2022/03/08 00:13:14;;;;;;;9.20;7.57;;;;;;;;;;5086541;28;20488;-58
2022/03/08 00:16:08;;;;;;;12.80;9.00;;;;;;;;;;5052433;28;20036;-58
2022/03/08 00:18:57;;;;;;;9.27;8.33;;;;;;;;;;5086342;28;20064;-58
2022/03/08 00:21:48;;;;;;;11.70;7.97;;;;;;;;;;5082389;28;20041;-57
2022/03/08 00:24:29;;;;;;;10.73;7.73;;;;;;;;;;5086164;28;20031;-57
2022/03/08 00:26:59;;;;;;;8.73;7.20;;;;;;;;;;5086676;28;20103;-58
2022/03/08 00:29:29;;;;;;;9.73;8.17;;;;;;;;;;5085770;28;20028;-57
2022/03/08 00:32:59;;;;;;;;;;;;;;;;;;;;;
2022/03/08 00:35:23;;;;;;;9.80;7.23;;;;;;;;;;5002785;28;20031;-58
2022/03/08 00:38:21;;;;;;;8.50;7.47;;;;;;;;;;5082046;28;20092;-58
2022/03/08 00:47:11;;;;;;;10.97;8.00;;;;;;;;;;5016743;28;20038;-58
2022/03/08 00:50:00;;;;;;;10.30;7.33;;;;;;;;;;5021072;28;20647;-57
2022/03/08 00:52:29;;;;;;;12.60;8.37;;;;;;;;;;5011116;28;20049;-58
2022/03/08 00:55:17;;;;;;;12.03;8.73;;;;;;;;;;5063675;28;20442;-56
2022/03/08 00:57:58;;;;;;;9.70;7.63;;;;;;;;;;5103415;28;20028;-58
2022/03/08 01:03:29;;;;;;;12.73;6.57;;;;;;;;;;5104938;28;20030;-58
2022/03/08 01:06:02;;;;;;;8.67;7.77;;;;;;;;;;5105929;28;20083;-59
2022/03/08 01:08:49;;;;;;;19.33;6.93;;;;;;;;;;5104851;28;20434;-58
2022/03/08 01:11:57;;;;;;;;;;;;;;;;;;;;;
2022/03/08 01:14:47;;;;;;;19.83;7.90;;;;;;;;;;5105987;28;20083;-58
2022/03/08 01:17:31;;;;;;;7.03;6.40;;;;;;;;;;5106154;28;20028;-58
2022/03/08 01:20:22;;;;;;;8.87;6.87;;;;;;;;;;5105032;28;20028;-57
2022/03/08 01:23:03;;;;;;;8.60;7.30;;;;;;;;;;5062526;28;20091;-58
2022/03/08 01:25:42;;;;;;;14.10;7.83;;;;;;;;;;5023554;28;20493;-58
2022/03/08 01:28:31;;;;;;;9.45;6.50;;;;;;;;;;5062850;28;20029;-58
2022/03/08 01:31:03;;;;;;;7.37;5.87;;;;;;;;;;5062950;28;20124;-58
2022/03/08 01:33:44;;;;;;;9.37;7.23;;;;;;;;;;5042304;28;20061;-57
2022/03/08 01:36:38;;;;;;;11.30;7.63;;;;;;;;;;5046386;28;20044;-58
2022/03/08 01:39:31;;;;;;;9.87;7.70;;;;;;;;;;5061542;28;20029;-57
2022/03/08 01:42:26;;;;;;;9.67;8.00;;;;;;;;;;5059149;28;20085;-58
2022/03/08 01:45:02;;;;;;;8.30;5.50;;;;;;;;;;5037522;28;20033;-58
2022/03/08 01:47:58;;;;;;;;;;;;;;;;;;;;;
2022/03/08 01:50:44;;;;;;;6.90;6.13;;;;;;;;;;5062598;28;20112;-58
2022/03/08 01:53:35;;;;;;;9.47;6.07;;;;;;;;;;5030913;28;20112;-58
2022/03/08 01:56:04;;;;;;;8.87;5.53;;;;;;;;;;5084782;28;20421;-58
2022/03/08 01:58:56;;;;;;;6.53;5.87;;;;;;;;;;5084253;28;20470;-58
2022/03/08 02:02:03;;;;;;;8.70;5.73;;;;;;;;;;5084495;28;20119;-58
2022/03/08 02:05:01;;;;;;;7.43;6.70;;;;;;;;;;5082551;28;20025;-58
2022/03/08 02:07:33;;;;;;;14.17;5.67;;;;;;;;;;5058561;28;20408;-57
2022/03/08 02:10:31;;;;;;;7.33;6.40;;;;;;;;;;5084214;28;20036;-57
2022/03/08 02:13:26;;;;;;;7.77;6.33;;;;;;;;;;5084521;28;20020;-58
2022/03/08 02:19:28;;;;;;;10.37;6.93;;;;;;;;;;5054347;28;20037;-57
2022/03/08 02:22:34;;;;;;;;;;;;;;;;;;;;;
2022/03/08 02:25:33;;;;;;;10.47;7.33;;;;;;;;;;5080401;28;20100;-58
2022/03/08 02:28:43;;;;;;;7.03;5.63;;;;;;;;;;5056426;28;20068;-58
2022/03/08 02:31:41;;;;;;;7.53;6.47;;;;;;;;;;5073489;28;20060;-58
2022/03/08 02:34:15;;;;;;;6.03;5.17;;;;;;;;;;5068824;28;20028;-57
2022/03/08 02:37:01;;;;;;;10.77;6.20;;;;;;;;;;5084214;28;20366;-58
2022/03/08 02:39:59;;;;;;;7.13;6.43;;;;;;;;;;5083258;28;20029;-58
2022/03/08 02:42:28;;;;;;;10.73;6.97;;;;;;;;;;5083747;28;20024;-58
2022/03/08 02:45:16;;;;;;;13.00;6.97;;;;;;;;;;5084237;28;20127;-58
2022/03/08 02:47:42;;;;;;;7.20;5.63;;;;;;;;;;5061160;28;20055;-57
2022/03/08 02:50:26;;;;;;;6.87;6.17;;;;;;;;;;5083463;28;20464;-58
2022/03/08 02:53:03;;;;;;;12.90;8.07;;;;;;;;;;5098631;28;20138;-58
2022/03/08 02:55:39;;;;;;;12.17;5.77;;;;;;;;;;5104424;28;20469;-57
2022/03/08 02:58:24;;;;;;;9.37;6.17;;;;;;;;;;5103726;28;20046;-57
2022/03/08 03:01:03;;;;;;;7.70;6.33;;;;;;;;;;5086402;28;20036;-57
2022/03/08 03:04:13;;;;;;;10.07;5.50;;;;;;;;;;5104139;28;20024;-58
2022/03/08 03:07:00;;;;;;;8.77;5.80;;;;;;;;;;5103977;28;20046;-57
2022/03/08 03:10:04;;;;;;;6.50;5.27;;;;;;;;;;5083966;28;20492;-58
2022/03/08 03:13:15;;;;;;;;;;;;;;;;;;;;;
2022/03/08 03:16:04;;;;;;;8.60;4.53;;;;;;;;;;5104081;28;20402;-57
2022/03/08 03:18:52;;;;;;;7.33;4.67;;;;;;;;;;5104846;28;20062;-58
2022/03/08 03:24:59;;;;;;;8.43;5.60;;;;;;;;;;5101344;28;20035;-57
2022/03/08 03:27:45;;;;;;;7.03;5.37;;;;;;;;;;5105113;28;20031;-58
2022/03/08 03:30:39;;;;;;;6.70;5.10;;;;;;;;;;5104437;28;20056;-57
2022/03/08 03:33:40;;;;;;;7.50;5.13;;;;;;;;;;5071030;28;20047;-57
2022/03/08 03:36:10;;;;;;;;;;;;;;;;;;5074517;28;20119;-58
2022/03/08 03:38:55;;;;;;;5.53;5.03;;;;;;;;;;5106872;28;20307;-57
2022/03/08 03:41:52;;;;;;;9.33;5.00;;;;;;;;;;5106340;28;20032;-57
2022/03/08 03:44:27;;;;;;;7.20;5.07;;;;;;;;;;5103963;28;20038;-57
2022/03/08 03:47:05;;;;;;;6.27;4.90;;;;;;;;;;5103096;28;20466;-57
2022/03/08 03:49:47;;;;;;;7.70;5.00;;;;;;;;;;5108001;28;20028;-58
2022/03/08 03:52:27;;;;;;;5.63;4.77;;;;;;;;;;5106873;28;20024;-58
2022/03/08 03:55:06;;;;;;;6.70;5.37;;;;;;;;;;5106687;28;20490;-59
2022/03/08 03:57:44;;;;;;;5.50;4.37;;;;;;;;;;5107760;28;20043;-58
2022/03/08 04:00:27;;;;;;;6.40;5.37;;;;;;;;;;5106795;28;20524;-57
2022/03/08 04:06:05;;;;;;;8.67;5.73;;;;;;;;;;5107341;28;20031;-58
2022/03/08 04:08:49;;;;;;;6.00;4.77;;;;;;;;;;5106699;28;20024;-58
2022/03/08 04:11:33;;;;;;;6.23;4.47;;;;;;;;;;5107087;28;20039;-58
2022/03/08 04:17:30;;;;;;;5.37;4.40;;;;;;;;;;5044410;28;20040;-58
2022/03/08 04:23:26;;;;;;;;;;;;;;;;;;5024702;28;20034;-57
2022/03/08 04:35:10;;;;;;;;;;;;;;;;;;5098965;28;20465;-57
2022/03/08 04:37:53;;;;;;;4.47;3.87;;;;;;;;;;5101515;28;19904;-57
2022/03/08 04:40:35;;;;;;;;;;;;;;;;;;;;;
2022/03/08 04:43:13;;;;;;;6.07;4.73;;;;;;;;;;5092368;28;20036;-57
2022/03/08 04:49:09;;;;;;;6.87;4.57;;;;;;;;;;5050288;28;20029;-57
2022/03/08 04:52:03;;;;;;;5.73;3.93;;;;;;;;;;5078447;28;20032;-58
2022/03/08 04:54:53;;;;;;;6.03;4.13;;;;;;;;;;5095431;28;20047;-56
2022/03/08 05:00:46;;;;;;;8.00;4.90;;;;;;;;;;5089993;28;20032;-57
2022/03/08 05:06:06;;;;;;;7.00;4.60;;;;;;;;;;5073050;28;20028;-57
2022/03/08 05:08:56;;;;;;;7.07;5.07;;;;;;;;;;5072621;28;20506;-56
2022/03/08 05:15:14;;;;;;;5.30;4.37;;;;;;;;;;5049994;28;20035;-57
2022/03/08 05:18:08;;;;;;;5.33;4.13;;;;;;;;;;5095859;28;20056;-57
2022/03/08 05:21:17;;;;;;;;;;;;;;;;;;;;;
2022/03/08 05:23:48;;;;;;;5.27;4.47;;;;;;;;;;5029492;28;20082;-57
2022/03/08 05:26:26;;;;;;;6.47;5.43;;;;;;;;;;5076467;28;20382;-57
2022/03/08 05:29:22;;;;;;;4.97;3.70;;;;;;;;;;5095446;28;20383;-55
2022/03/08 05:32:23;;;;;;;5.43;4.27;;;;;;;;;;5096368;28;20123;-57
2022/03/08 05:37:58;;;;;;;5.23;3.90;;;;;;;;;;5065611;28;20032;-55
2022/03/08 05:40:44;;;;;;;4.40;3.50;;;;;;;;;;5092875;28;20477;-57
2022/03/08 05:43:28;;;;;;;6.13;3.63;;;;;;;;;;5076025;28;20100;-57
2022/03/08 05:46:25;;;;;;;8.23;4.90;;;;;;;;;;5077711;28;20490;-57
2022/03/08 05:49:07;;;;;;;6.20;4.33;;;;;;;;;;5074597;28;20032;-57
2022/03/08 05:51:57;;;;;;;;;;;;;;;;;;;;;
2022/03/08 05:55:02;;;;;;;6.43;5.57;;;;;;;;;;5094089;28;20376;-54
2022/03/08 05:57:31;;;;;;;4.70;3.47;;;;;;;;;;5091021;28;20093;-57
2022/03/08 06:00:32;;;;;;;6.23;4.30;;;;;;;;;;5076387;28;20059;-57
2022/03/08 06:03:13;;;;;;;7.93;3.47;;;;;;;;;;5059442;28;20036;-56
2022/03/08 06:17:46;;;;;;;4.35;3.22;;;;;;;;;;5035852;28;20091;-57
2022/03/08 06:20:40;;;;;;;4.93;4.07;;;;;;;;;;5037336;28;20038;-57
2022/03/08 06:23:54;;;;;;;6.40;4.40;;;;;;;;;;5109733;28;20414;-57
2022/03/08 06:26:42;;;;;;;7.23;5.67;;;;;;;;;;5102194;28;20047;-57
2022/03/08 06:29:35;;;;;;;6.83;4.07;;;;;;;;;;5109116;28;20025;-58
2022/03/08 06:32:16;;;;;;;8.27;4.73;;;;;;;;;;5106437;28;20036;-57
2022/03/08 06:35:19;;;;;;;;;;;;;;;;;;;;;
2022/03/08 06:38:36;;;;;;;;;;;;;;;;;;;;;
2022/03/08 06:44:26;;;;;;;5.33;3.30;;;;;;;;;;5108586;28;20036;-58
2022/03/08 06:47:06;;;;;;;8.27;4.97;;;;;;;;;;5109033;28;20025;-57
2022/03/08 06:49:38;;;;;;;6.80;3.60;;;;;;;;;;5107727;28;20028;-57
2022/03/08 06:52:26;;;;;;;7.77;4.97;;;;;;;;;;5105734;28;20032;-58
2022/03/08 07:01:17;;;;;;;7.27;4.70;;;;;;;;;;5108280;28;20059;-58
2022/03/08 07:04:04;;;;;;;7.80;5.23;;;;;;;;;;5108769;28;20035;-57
2022/03/08 07:12:41;;;;;;;6.73;4.03;;;;;;;;;;5058081;28;20073;-57
2022/03/08 07:15:50;;;;;;;8.27;5.73;;;;;;;;;;5094197;28;20029;-56
2022/03/08 07:21:15;;;;;;;6.33;4.67;;;;;;;;;;5094395;28;20385;-56
2022/03/08 07:23:50;;;;;;;;;;;;;;;;;;5079272;28;20024;-57
2022/03/08 07:29:50;;;;;;;4.97;3.60;;;;;;;;;;5097832;28;20492;-57
2022/03/08 07:32:30;;;;;;;;;;;;;;;;;;;;;
2022/03/08 07:35:06;;;;;;;7.70;3.87;;;;;;;;;;5082403;28;20077;-57
2022/03/08 07:37:45;;;;;;;6.43;5.27;;;;;;;;;;5098558;28;20028;-56
2022/03/08 07:41:04;;;;;;;9.93;5.27;;;;;;;;;;5078641;28;20044;-57
2022/03/08 07:46:38;;;;;;;5.10;4.60;;;;;;;;;;5098240;28;20040;-57
2022/03/08 07:49:30;;;;;;;6.63;4.37;;;;;;;;;;5097772;28;20027;-57
2022/03/08 07:52:54;;;;;;;;;;;;;;;;;;;;;
2022/03/08 07:58:38;;;;;;;7.03;4.43;;;;;;;;;;5013403;28;20036;-56
2022/03/08 08:01:09;;;;;;;5.83;5.00;;;;;;;;;;5038147;28;20474;-59
2022/03/08 08:07:26;;;;;;;5.95;4.95;;;;;;;;;;4995396;28;20090;-58
2022/03/08 08:13:26;;;;;;;7.17;5.53;;;;;;;;;;4995564;28;20038;-57
2022/03/08 08:16:07;;;;;;;;;;;;;;;;;;;;;
2022/03/08 08:18:59;;;;;;;6.83;5.53;;;;;;;;;;5097377;28;20095;-59
2022/03/08 08:21:33;;;;;;;8.13;5.83;;;;;;;;;;5074793;28;20485;-59
2022/03/08 08:24:12;;;;;;;7.13;5.83;;;;;;;;;;5097295;28;20028;-59
2022/03/08 08:27:31;;;;;;;;;;;;;;;;;;;;;
2022/03/08 08:30:11;;;;;;;;;;;;;;;;;;;;;
2022/03/08 08:33:30;;;;;;;8.47;6.17;;;;;;;;;;5097529;28;20114;-59
2022/03/08 08:38:52;;;;;;;8.80;6.33;;;;;;;;;;5059190;28;20043;-58
2022/03/08 08:53:22;;;;;;;;;;;;;;;;;;;;;
2022/03/08 08:55:53;;;;;;;6.23;4.70;;;;;;;;;;5092672;28;19916;-59
2022/03/08 08:58:31;;;;;;;7.97;7.15;;;;;;;;;;5095278;28;20059;-56
2022/03/08 09:01:18;;;;;;;5.87;4.83;;;;;;;;;;5096369;28;20039;-56
2022/03/08 09:04:03;;;;;;;8.77;4.60;;;;;;;;;;5076959;28;20035;-57
2022/03/08 09:06:41;;;;;;;6.07;4.97;;;;;;;;;;5095530;28;20021;-56
2022/03/08 09:13:00;;;;;;;;;;;;;;;;;;;;;
2022/03/08 09:15:38;;;;;;;5.00;4.07;;;;;;;;;;5016959;28;20033;-56
2022/03/08 09:18:45;;;;;;;7.53;4.65;;;;;;;;;;5089769;28;20484;-56
2022/03/08 09:21:40;;;;;;;8.70;4.65;;;;;;;;;;5055588;28;20406;-56
2022/03/08 09:27:50;;;;;;;8.20;4.45;;;;;;;;;;5056326;28;20028;-55
2022/03/08 09:30:52;;;;;;;;;;;;;;;;;;;;;
2022/03/08 09:37:08;;;;;;;;;;;;;;;;;;;;;
2022/03/08 09:43:06;;;;;;;6.15;4.20;;;;;;;;;;5095985;28;20028;-56
2022/03/08 09:49:11;;;;;;;7.00;5.10;;;;;;;;;;5013095;28;20038;-56
2022/03/08 09:58:00;;;;;;;8.93;4.82;;;;;;;;;;4953582;28;20160;-55
2022/03/08 10:00:55;;;;;;;4.78;4.30;;;;;;;;;;4954709;29;20075;-56
2022/03/08 10:06:23;;;;;;;9.32;5.20;;;;;;;;;;4973529;28;20560;-56
2022/03/08 10:09:13;;;;;;;5.30;3.97;;;;;;;;;;4989825;28;20042;-57
2022/03/08 10:21:11;;;;;;;8.48;3.70;;;;;;;;;;5091310;28;20051;-57
2022/03/08 10:23:46;;;;;;;7.18;4.88;;;;;;;;;;5095542;28;20071;-56
2022/03/08 10:26:18;;;;;;;4.45;3.53;;;;;;;;;;5059590;28;20051;-56
2022/03/08 10:29:06;;;;;;;6.00;3.63;;;;;;;;;;5095234;28;20027;-56
2022/03/08 10:32:16;;;;;;;5.43;4.35;;;;;;;;;;5094785;28;20024;-57
2022/03/08 10:35:11;;;;;;;4.57;3.28;;;;;;;;;;5093770;28;20602;-56
2022/03/08 10:38:05;;;;;;;5.82;4.32;;;;;;;;;;5035476;28;20434;-57
2022/03/08 10:41:10;;;;;;;6.13;4.07;;;;;;;;;;5018374;28;20084;-56
2022/03/08 10:44:18;;;;;;;3.85;3.30;;;;;;;;;;5013196;28;20120;-55
2022/03/08 10:47:03;;;;;;;4.55;3.95;;;;;;;;;;4959538;29;20046;-56
2022/03/08 10:49:30;;;;;;;4.80;3.80;;;;;;;;;;4954522;29;20417;-56
2022/03/08 10:52:04;;;;;;;5.35;4.32;;;;;;;;;;4954210;29;20646;-57
2022/03/08 10:54:50;;;;;;;5.32;3.95;;;;;;;;;;4937433;29;20598;-56
2022/03/08 11:01:07;;;;;;;5.10;3.67;;;;;;;;;;5020535;28;20170;-56
2022/03/08 11:03:42;;;;;;;5.43;4.00;;;;;;;;;;5056094;28;20068;-56
2022/03/08 11:06:09;;;;;;;5.25;3.40;;;;;;;;;;5056159;28;20052;-56
2022/03/08 11:19:06;;;;;;;6.47;3.75;;;;;;;;;;4961180;28;20023;-56
2022/03/08 11:22:01;;;;;;;3.83;3.08;;;;;;;;;;4993714;28;20042;-56
2022/03/08 11:24:45;;;;;;;6.13;4.00;;;;;;;;;;5015796;28;20026;-57
2022/03/08 11:28:13;;;;;;;4.43;3.17;;;;;;;;;;5088868;28;20032;-54
2022/03/08 11:30:54;;;;;;;4.18;3.45;;;;;;;;;;5014402;28;20088;-55
2022/03/08 11:34:01;;;;;;;;;;;;;;;;;;;;;
2022/03/08 11:37:15;;;;;;;4.32;3.22;;;;;;;;;;5097798;28;20119;-55
2022/03/08 11:42:57;;;;;;;5.70;3.65;;;;;;;;;;5058698;28;20059;-57
2022/03/08 11:45:28;;;;;;;5.20;3.67;;;;;;;;;;5097327;28;20020;-53
2022/03/08 11:51:01;;;;;;;7.03;4.88;;;;;;;;;;5097439;28;20087;-56
2022/03/08 11:53:32;;;;;;;5.53;3.75;;;;;;;;;;5056088;28;20039;-57
2022/03/08 11:56:24;;;;;;;14.27;3.97;;;;;;;;;;5089866;28;20047;-57
2022/03/08 11:59:36;;;;;;;4.45;3.60;;;;;;;;;;5097151;28;20048;-56
2022/03/08 12:02:04;;;;;;;5.75;4.15;;;;;;;;;;5097679;28;20504;-57
2022/03/08 12:04:57;;;;;;;4.40;3.47;;;;;;;;;;5097061;28;20016;-57
2022/03/08 12:07:46;;;;;;;6.47;3.72;;;;;;;;;;5077414;28;20035;-57
2022/03/08 12:11:07;;;;;;;;;;;;;;;;;;;;;
2022/03/08 12:13:55;;;;;;;6.07;3.95;;;;;;;;;;5014950;28;20132;-55
2022/03/08 12:16:33;;;;;;;6.32;4.82;;;;;;;;;;5015279;28;20030;-56
2022/03/08 12:19:29;;;;;;;7.20;4.63;;;;;;;;;;5017061;28;20029;-56
2022/03/08 12:22:13;;;;;;;6.47;4.68;;;;;;;;;;5065632;28;20066;-57
2022/03/08 12:25:19;;;;;;;4.75;3.97;;;;;;;;;;5097310;28;20214;-57
2022/03/08 12:28:15;;;;;;;;;;;;;;;;;;;;;
2022/03/08 12:33:55;;;;;;;5.07;3.80;;;;;;;;;;5081126;28;20081;-56
2022/03/08 12:36:32;;;;;;;7.18;4.88;;;;;;;;;;5014340;28;20049;-56
2022/03/08 12:39:23;;;;;;;5.72;4.88;;;;;;;;;;5096299;28;20024;-56
2022/03/08 12:42:04;;;;;;;10.05;4.63;;;;;;;;;;5077612;28;20521;-57
2022/03/08 12:44:33;;;;;;;;;;;;;;;;;;5079041;28;20078;-57
2022/03/08 12:47:06;;;;;;;7.60;5.32;;;;;;;;;;5096808;28;19908;-57
2022/03/08 12:49:53;;;;;;;7.50;4.97;;;;;;;;;;5078014;28;20385;-57
2022/03/08 12:52:48;;;;;;;7.22;4.97;;;;;;;;;;5096417;28;20053;-57
2022/03/08 12:55:37;;;;;;;7.38;4.93;;;;;;;;;;5063626;28;20060;-59
2022/03/08 12:58:29;;;;;;;8.45;5.43;;;;;;;;;;5066527;28;20567;-57
2022/03/08 13:07:28;;;;;;;4.82;4.30;;;;;;;;;;5059337;28;20036;-57
2022/03/08 13:10:20;;;;;;;6.28;4.05;;;;;;;;;;5053360;28;20037;-56
2022/03/08 13:13:21;;;;;;;;;;;;;;;;;;;;;
2022/03/08 13:16:11;;;;;;;6.68;4.72;;;;;;;;;;5053412;28;20398;-57
2022/03/08 13:18:46;;;;;;;7.30;4.40;;;;;;;;;;5053199;28;20459;-56
2022/03/08 13:21:55;;;;;;;;;;;;;;;;;;;;;
2022/03/08 13:24:42;;;;;;;7.38;4.10;;;;;;;;;;5053391;28;20031;-56
2022/03/08 13:30:44;;;;;;;6.38;3.92;;;;;;;;;;5045510;28;20043;-57
2022/03/08 13:45:00;;;;;;;5.78;3.80;;;;;;;;;;5094727;28;20492;-56
2022/03/08 13:50:32;;;;;;;;;;;;;;;;;;;;;
2022/03/08 13:53:20;;;;;;;6.75;4.18;;;;;;;;;;5027129;28;20028;-55
2022/03/08 13:59:19;;;;;;;5.00;3.45;;;;;;;;;;5093855;28;20086;-57
2022/03/08 14:08:07;;;;;;;6.72;4.53;;;;;;;;;;5094856;28;20062;-57
2022/03/08 14:11:16;;;;;;;9.48;5.38;;;;;;;;;;5094719;28;20055;-57
2022/03/08 14:13:58;;;;;;;4.82;3.88;;;;;;;;;;5093513;28;20028;-56
2022/03/08 14:16:39;;;;;;;5.88;4.20;;;;;;;;;;5071107;28;20588;-57
2022/03/08 14:19:24;;;;;;;8.00;4.78;;;;;;;;;;5095241;28;20051;-57
2022/03/08 14:22:23;;;;;;;6.15;4.85;;;;;;;;;;5070363;28;20123;-57
2022/03/08 14:25:07;;;;;;;6.10;4.78;;;;;;;;;;5059773;28;20043;-54
2022/03/08 14:28:01;;;;;;;6.03;4.75;;;;;;;;;;5095448;28;20068;-57
2022/03/08 14:40:00;;;;;;;;;;;;;;;;;;;;;
2022/03/08 14:42:54;;;;;;;6.97;4.40;;;;;;;;;;5094135;28;20124;-56
2022/03/08 14:45:44;;;;;;;7.93;5.25;;;;;;;;;;5094625;28;20028;-57
2022/03/08 14:48:24;;;;;;;7.18;5.35;;;;;;;;;;5077816;28;20126;-57
2022/03/08 14:50:50;;;;;;;7.80;5.30;;;;;;;;;;5056728;28;20040;-58
2022/03/08 14:53:32;;;;;;;8.88;5.45;;;;;;;;;;5091759;28;20024;-57
2022/03/08 14:56:13;;;;;;;10.82;6.03;;;;;;;;;;5071203;28;20043;-56
2022/03/08 14:58:55;;;;;;;8.07;5.85;;;;;;;;;;5088486;28;20057;-56
2022/03/08 15:04:49;;;;;;;6.72;4.63;;;;;;;;;;5094209;28;20027;-58
2022/03/08 15:10:36;;;;;;;6.78;4.47;;;;;;;;;;5094431;28;20504;-58
2022/03/08 15:13:19;;;;;;;;;;;;;;;;;;5075878;28;20073;-58
2022/03/08 15:16:45;;;;;;;;;;;;;;;;;;;;;
2022/03/08 15:19:38;;;;;;;5.88;3.90;;;;;;;;;;5076984;28;20427;-57
2022/03/08 15:22:30;;;;;;;9.80;3.72;;;;;;;;;;5095057;28;20050;-56
2022/03/08 15:34:38;;;;;;;4.47;3.75;;;;;;;;;;5089165;28;20119;-57
2022/03/08 15:43:25;;;;;;;5.78;3.75;;;;;;;;;;5048549;28;20039;-58
2022/03/08 15:49:11;;;;;;;8.75;3.55;;;;;;;;;;5097118;28;20059;-58
2022/03/08 15:52:04;;;;;;;6.00;3.42;;;;;;;;;;5074530;28;20041;-56
2022/03/08 16:01:11;;;;;;;6.35;4.93;;;;;;;;;;4975874;28;20126;-58
2022/03/08 16:10:11;;;;;;;4.43;3.45;;;;;;;;;;4955433;29;20031;-58
2022/03/08 16:13:31;;;;;;;8.88;3.72;;;;;;;;;;5008765;28;20049;-56
2022/03/08 16:19:29;;;;;;;5.75;3.40;;;;;;;;;;4956453;29;20481;-58
2022/03/08 16:28:11;;;;;;;4.88;3.78;;;;;;;;;;5077200;28;20050;-58
2022/03/08 16:31:22;;;;;;;5.43;3.75;;;;;;;;;;5096351;28;20052;-58
2022/03/08 16:37:24;;;;;;;6.32;3.75;;;;;;;;;;5007371;28;20036;-58
2022/03/08 16:40:09;;;;;;;6.63;4.50;;;;;;;;;;5014073;28;20032;-57
2022/03/08 16:43:10;;;;;;;7.35;4.20;;;;;;;;;;5080483;28;20028;-58
2022/03/08 16:49:08;;;;;;;3.28;2.63;;;;;;;;;;5095511;28;20085;-58
2022/03/08 16:51:46;;;;;;;5.95;4.43;;;;;;;;;;5096951;28;20111;-57
2022/03/08 16:54:42;;;;;;;6.80;4.72;;;;;;;;;;5096151;28;20035;-58
2022/03/08 16:57:30;;;;;;;;;;;;;;;;;;;;;
2022/03/08 17:00:24;;;;;;;;;;;;;;;;;;;;;
2022/03/08 17:06:02;;;;;;;7.00;3.55;;;;;;;;;;5092764;28;20054;-57
2022/03/08 17:08:56;;;;;;;7.03;4.93;;;;;;;;;;5077154;28;20024;-57
2022/03/08 17:14:40;;;;;;;6.55;5.25;;;;;;;;;;5096141;28;20081;-57
2022/03/08 17:17:15;;;;;;;5.68;4.40;;;;;;;;;;5067511;28;20493;-56
2022/03/08 17:20:20;;;;;;;8.18;4.40;;;;;;;;;;5096693;28;20020;-56
2022/03/08 17:26:59;;;;;;;9.18;4.20;;;;;;;;;;5050322;28;20039;-58
2022/03/08 17:28:57;;;;;;;7.90;4.97;;;;;;;;;;5086703;28;20488;-55
2022/03/08 17:31:56;;;;;;;5.70;4.25;;;;;;;;;;5076593;28;20068;-56
2022/03/08 17:34:40;;;;;;;4.63;3.72;;;;;;;;;;5089162;28;20469;-57
2022/03/08 17:40:10;;;;;;;6.15;5.00;;;;;;;;;;5083721;28;20020;-56
2022/03/08 17:43:21;;;;;;;6.53;3.80;;;;;;;;;;5095643;28;20568;-57
2022/03/08 17:45:53;;;;;;;6.90;4.55;;;;;;;;;;5014010;28;20109;-57
2022/03/08 17:48:47;;;;;;;9.93;4.50;;;;;;;;;;5014256;28;20168;-56
2022/03/08 17:57:53;;;;;;;9.23;5.70;;;;;;;;;;5022328;28;20041;-57
2022/03/08 18:01:00;;;;;;;13.80;8.02;;;;;;;;;;5050621;28;20044;-57
2022/03/08 18:03:35;;;;;;;12.35;8.57;;;;;;;;;;5083154;28;20512;-57
2022/03/08 18:16:27;;;;;;;9.00;5.20;;;;;;;;;;5094502;28;20035;-57
2022/03/08 18:19:16;;;;;;;6.80;4.43;;;;;;;;;;5093929;28;20020;-57
2022/03/08 18:24:42;;;;;;;22.77;11.13;;;;;;;;;;5055890;28;20082;-55
2022/03/08 18:33:26;;;;;;;27.30;17.02;;;;;;;;;;5011915;28;20037;-56
2022/03/08 18:36:11;;;;;;;31.38;17.88;;;;;;;;;;5093263;28;20077;-55
2022/03/08 18:38:59;;;;;;;15.75;10.55;;;;;;;;;;5075956;28;20128;-56
2022/03/08 18:41:59;;;;;;;11.98;8.85;;;;;;;;;;5094835;28;20473;-57
2022/03/08 18:44:31;;;;;;;9.43;6.70;;;;;;;;;;5048083;28;20182;-57
2022/03/08 18:49:53;;;;;;;22.45;17.10;;;;;;;;;;5046439;28;20044;-57
2022/03/08 18:52:40;;;;;;;54.60;33.05;;;;;;;;;;5051653;28;20040;-56
2022/03/08 18:57:57;;;;;;;;;;;;;;;;;;5038734;28;20029;-57
2022/03/08 19:00:40;;;;;;;36.75;21.35;;;;;;;;;;5049538;28;19924;-55
2022/03/08 19:03:27;;;;;;;7.32;5.20;;;;;;;;;;5051110;28;20506;-57
2022/03/08 19:09:07;;;;;;;10.15;5.95;;;;;;;;;;5072169;28;20032;-56
2022/03/08 19:18:41;;;;;;;6.63;4.68;;;;;;;;;;5008624;28;20054;-57
2022/03/08 19:21:47;;;;;;;8.27;4.97;;;;;;;;;;5098291;28;20423;-57
2022/03/08 19:24:21;;;;;;;7.50;5.60;;;;;;;;;;5097202;28;20024;-54
2022/03/08 19:27:08;;;;;;;7.85;4.57;;;;;;;;;;5098566;28;20109;-52
2022/03/08 19:30:06;;;;;;;6.65;4.25;;;;;;;;;;5079285;28;20036;-56
2022/03/08 19:32:49;;;;;;;6.00;4.68;;;;;;;;;;5082835;28;20173;-57
2022/03/08 19:35:42;;;;;;;;;;;;;;;;;;;;;
2022/03/08 19:41:47;;;;;;;7.88;5.10;;;;;;;;;;5089018;28;20093;-57
2022/03/08 19:44:39;;;;;;;7.80;5.88;;;;;;;;;;5074537;28;20043;-57
2022/03/08 19:47:08;;;;;;;9.13;5.82;;;;;;;;;;5014956;28;20037;-57
2022/03/08 19:50:08;;;;;;;8.15;6.00;;;;;;;;;;5095346;28;20541;-55
2022/03/08 19:53:00;;;;;;;8.18;5.50;;;;;;;;;;5062404;28;20032;-58
2022/03/08 19:55:36;;;;;;;8.68;5.35;;;;;;;;;;5015658;28;20444;-58
2022/03/08 20:01:46;;;;;;;10.10;6.07;;;;;;;;;;4999504;28;20520;-55
2022/03/08 20:04:56;;;;;;;;;;;;;;;;;;;;;
2022/03/08 20:07:29;;;;;;;;;;;;;;;;;;4995566;28;20041;-54
2022/03/08 20:09:58;;;;;;;6.03;4.28;;;;;;;;;;4994757;28;20338;-56
2022/03/08 20:12:36;;;;;;;9.23;5.28;;;;;;;;;;5003652;28;20037;-57
2022/03/08 20:18:23;;;;;;;10.80;5.65;;;;;;;;;;5054090;28;20029;-57
2022/03/08 20:20:56;;;;;;;10.43;6.40;;;;;;;;;;5047358;28;20556;-57
2022/03/08 20:23:45;;;;;;;7.93;5.47;;;;;;;;;;5054035;28;20554;-56
2022/03/08 20:26:37;;;;;;;9.00;6.47;;;;;;;;;;5054235;28;20037;-56
2022/03/08 20:29:35;;;;;;;8.63;6.23;;;;;;;;;;5053711;28;20098;-57
2022/03/08 20:32:18;;;;;;;6.57;5.28;;;;;;;;;;5014382;28;20033;-56
2022/03/08 20:35:12;;;;;;;7.83;5.20;;;;;;;;;;5052817;28;20469;-56
2022/03/08 20:41:12;;;;;;;6.00;4.90;;;;;;;;;;5054061;28;20052;-56
2022/03/08 20:43:54;;;;;;;;;;;;;;;;;;;;;
2022/03/08 20:47:08;;;;;;;7.57;5.53;;;;;;;;;;5060721;28;20047;-55
2022/03/08 20:50:08;;;;;;;8.93;6.18;;;;;;;;;;5075333;28;20455;-57
2022/03/08 20:55:55;;;;;;;6.88;4.63;;;;;;;;;;5066210;28;20086;-55
2022/03/08 20:58:38;;;;;;;6.93;5.63;;;;;;;;;;5073421;28;20468;-57
2022/03/08 21:01:20;;;;;;;6.93;4.93;;;;;;;;;;5023101;28;20052;-57
2022/03/08 21:03:53;;;;;;;12.07;5.27;;;;;;;;;;5073474;28;20037;-56
2022/03/08 21:12:58;;;;;;;9.70;5.43;;;;;;;;;;5073533;28;20035;-55
2022/03/08 21:15:51;;;;;;;7.00;4.60;;;;;;;;;;5045738;28;20037;-57
2022/03/08 21:18:29;;;;;;;6.67;5.37;;;;;;;;;;5073875;28;20090;-57
2022/03/08 21:24:00;;;;;;;12.43;8.13;;;;;;;;;;5074663;28;20474;-56
2022/03/08 21:30:05;;;;;;;31.47;15.80;;;;;;;;;;5016624;28;20165;-55
2022/03/08 21:32:56;;;;;;;21.50;12.93;;;;;;;;;;5074070;28;20089;-57
2022/03/08 21:35:46;;;;;;;8.85;6.88;;;;;;;;;;5075888;28;20067;-57
2022/03/08 21:38:44;;;;;;;;;;;;;;;;;;;;;
2022/03/08 21:44:47;;;;;;;11.98;8.82;;;;;;;;;;5012896;28;20049;-57
2022/03/08 21:47:38;;;;;;;11.10;7.40;;;;;;;;;;4986778;28;20038;-57
2022/03/08 21:50:40;;;;;;;8.70;6.00;;;;;;;;;;4963559;28;20041;-55
2022/03/08 21:56:26;;;;;;;10.53;6.93;;;;;;;;;;5075860;28;20033;-57
2022/03/08 21:59:04;;;;;;;12.00;8.13;;;;;;;;;;5057071;28;20039;-57
2022/03/08 22:01:47;;;;;;;15.70;9.57;;;;;;;;;;5092096;28;20089;-57
2022/03/08 22:07:49;;;;;;;14.90;7.97;;;;;;;;;;5094891;28;20422;-57
2022/03/08 22:13:50;;;;;;;33.50;18.83;;;;;;;;;;5082173;28;20035;-57
2022/03/08 22:20:08;;;;;;;25.73;14.20;;;;;;;;;;5065235;28;20036;-57
2022/03/08 22:22:44;;;;;;;;;;;;;;;;;;;;;
2022/03/08 22:32:12;;;;;;;11.10;7.63;;;;;;;;;;5094500;28;20044;-57
2022/03/08 22:34:52;;;;;;;19.17;12.67;;;;;;;;;;5108162;28;20092;-57
2022/03/08 22:37:48;;;;;;;20.00;12.57;;;;;;;;;;5107927;28;20087;-59
2022/03/08 22:40:20;;;;;;;11.83;8.33;;;;;;;;;;5108361;28;20088;-54
2022/03/08 22:43:14;;;;;;;19.67;12.80;;;;;;;;;;5089253;28;20485;-56
2022/03/08 22:45:54;;;;;;;;;;;;;;;;;;;;;
2022/03/08 22:48:31;;;;;;;24.02;16.90;;;;;;;;;;5095742;28;20056;-55
2022/03/08 22:54:31;;;;;;;24.47;16.17;;;;;;;;;;5113016;28;20088;-56
2022/03/08 22:57:11;;;;;;;23.75;16.30;;;;;;;;;;5095739;28;20020;-57
2022/03/08 23:00:02;;;;;;;30.10;19.23;;;;;;;;;;5113908;28;20563;-57
2022/03/08 23:05:39;;;;;;;14.43;9.53;;;;;;;;;;5113656;28;19964;-56
2022/03/08 23:11:55;;;;;;;;;;;;;;;;;;;;;
2022/03/08 23:14:34;;;;;;;6.40;4.53;;;;;;;;;;5114007;28;20059;-56
2022/03/08 23:23:08;;;;;;;8.10;5.50;;;;;;;;;;5101849;28;20040;-57
2022/03/08 23:29:09;;;;;;;7.10;5.43;;;;;;;;;;5101672;28;20036;-56
2022/03/08 23:34:36;;;;;;;6.87;5.97;;;;;;;;;;5112763;28;20039;-57
2022/03/08 23:37:27;;;;;;;6.53;4.77;;;;;;;;;;5112961;28;20038;-57
2022/03/08 23:40:09;;;;;;;8.77;6.30;;;;;;;;;;5112624;28;20079;-56
2022/03/08 23:43:13;;;;;;;5.73;4.63;;;;;;;;;;5113448;28;20373;-56
2022/03/08 23:45:55;;;;;;;5.30;4.00;;;;;;;;;;5111366;28;20032;-57
2022/03/08 23:48:52;;;;;;;7.67;5.20;;;;;;;;;;5110597;28;20049;-57
2022/03/08 23:51:38;;;;;;;11.30;7.77;;;;;;;;;;5091106;28;20036;-57
